Time;durP1;ratioP1;P1;durP2;ratioP2;P2;SDS_P1;SDS_P2;PMS_P1;PMS_P2;Temp;Humidity;BMP_temperature;BMP_pressure;BME280_temperature;BME280_humidity;BME280_pressure;Samples;Min_cycle;Max_cycle;Signal;HPM_P1;HPM_P2
2021/03/07 00:01:17;;;;;;;75.87;44.27;;;0.70;90.20;;;;;;5095592;28;20235;-68
2021/03/07 00:03:43;;;;;;;64.60;44.07;;;0.70;89.50;;;;;;5095669;28;20207;-70
2021/03/07 00:06:09;;;;;;;76.30;49.30;;;0.40;89.70;;;;;;5095574;28;20169;-69
2021/03/07 00:08:36;;;;;;;69.73;47.60;;;0.40;90.70;;;;;;5095522;28;20257;-67
2021/03/07 00:11:01;;;;;;;72.10;49.38;;;0.60;91.60;;;;;;5094214;28;20201;-69
2021/03/07 00:13:27;;;;;;;70.57;48.30;;;0.60;91.70;;;;;;5095469;28;20608;-68
2021/03/07 00:15:53;;;;;;;69.77;45.07;;;0.40;91.40;;;;;;5095315;28;20168;-69
2021/03/07 00:18:18;;;;;;;67.93;45.50;;;0.50;91.20;;;;;;5093952;28;20207;-69
2021/03/07 00:20:44;;;;;;;68.23;44.50;;;0.60;91.40;;;;;;5095127;28;20196;-69
2021/03/07 00:23:10;;;;;;;63.77;41.40;;;0.20;91.00;;;;;;5095188;28;20601;-67
2021/03/07 00:25:35;;;;;;;58.67;39.97;;;0.20;91.40;;;;;;5095091;28;20173;-69
2021/03/07 00:28:01;;;;;;;66.77;40.07;;;0.30;91.90;;;;;;5095077;28;20304;-67
2021/03/07 00:30:26;;;;;;;58.07;37.67;;;0.30;91.60;;;;;;5095052;28;20538;-69
2021/03/07 00:32:52;;;;;;;54.53;37.43;;;0.40;91.80;;;;;;5095008;28;20169;-69
2021/03/07 00:35:18;;;;;;;55.00;37.37;;;0.30;92.40;;;;;;5095514;28;20172;-68
2021/03/07 00:37:43;;;;;;;54.53;35.67;;;0.40;92.00;;;;;;5094880;28;20214;-68
2021/03/07 00:40:11;;;;;;;53.17;35.90;;;0.50;92.60;;;;;;5094917;28;20308;-68
2021/03/07 00:42:42;;;;;;;54.35;36.53;;;0.30;92.80;;;;;;5094760;28;20196;-67
2021/03/07 00:45:09;;;;;;;50.75;34.03;;;0.40;92.70;;;;;;5095465;28;20177;-67
2021/03/07 00:47:35;;;;;;;50.03;34.05;;;0.30;93.10;;;;;;5094662;28;20169;-68
2021/03/07 00:50:01;;;;;;;51.27;34.47;;;0.40;94.10;;;;;;5093673;28;20181;-69
2021/03/07 00:52:27;;;;;;;50.95;34.78;;;0.20;93.90;;;;;;5093280;28;20187;-67
2021/03/07 00:54:52;;;;;;;52.87;35.07;;;0.30;94.40;;;;;;5094898;28;20192;-68
2021/03/07 00:57:18;;;;;;;48.97;34.50;;;0.40;94.00;;;;;;5094637;28;20196;-69
2021/03/07 00:59:44;;;;;;;52.27;34.93;;;0.40;94.00;;;;;;5094252;28;20627;-68
2021/03/07 01:02:09;;;;;;;44.57;31.80;;;0.40;94.10;;;;;;5093231;28;20204;-69
2021/03/07 01:04:35;;;;;;;51.87;33.13;;;0.30;94.60;;;;;;5094638;28;20196;-68
2021/03/07 01:07:00;;;;;;;47.70;30.23;;;0.20;95.40;;;;;;5094485;28;20601;-68
2021/03/07 01:09:26;;;;;;;54.73;35.67;;;0.20;96.00;;;;;;5094579;28;20283;-68
2021/03/07 01:11:52;;;;;;;56.40;37.67;;;0.20;97.60;;;;;;5093034;28;20204;-69
2021/03/07 01:14:17;;;;;;;57.90;39.63;;;0.20;97.80;;;;;;5094166;28;20237;-68
2021/03/07 01:16:44;;;;;;;54.80;36.93;;;-0.10;98.20;;;;;;5092979;28;20242;-69
2021/03/07 01:19:10;;;;;;;63.50;37.08;;;-0.20;99.00;;;;;;5094398;28;20650;-68
2021/03/07 01:21:36;;;;;;;58.13;39.33;;;-0.20;99.40;;;;;;5094101;28;20214;-68
2021/03/07 01:24:01;;;;;;;59.43;37.23;;;-0.10;99.40;;;;;;5092730;28;20212;-69
2021/03/07 01:26:27;;;;;;;59.60;36.97;;;-0.30;99.90;;;;;;5093636;28;20642;-69
2021/03/07 01:28:53;;;;;;;55.63;36.10;;;-0.30;99.90;;;;;;5094119;28;20657;-67
2021/03/07 01:31:18;;;;;;;58.57;35.90;;;-0.40;99.90;;;;;;5094094;28;20164;-69
2021/03/07 01:33:44;;;;;;;56.90;36.03;;;-0.40;99.90;;;;;;5093980;28;20196;-67
2021/03/07 01:36:09;;;;;;;53.97;37.40;;;-0.20;99.90;;;;;;5093949;28;20164;-68
2021/03/07 01:38:35;;;;;;;55.30;38.30;;;-0.10;99.90;;;;;;5093897;28;20227;-67
2021/03/07 01:41:01;;;;;;;59.23;38.80;;;-0.10;99.90;;;;;;5092491;28;20718;-68
2021/03/07 01:43:27;;;;;;;64.63;37.13;;;-0.30;99.90;;;;;;5092529;28;20228;-70
2021/03/07 01:45:53;;;;;;;54.05;38.13;;;-0.20;99.90;;;;;;5092607;28;20202;-67
2021/03/07 01:48:19;;;;;;;60.83;37.38;;;-0.30;99.90;;;;;;5093772;28;20598;-67
2021/03/07 01:50:48;;;;;;;57.97;35.55;;;-0.30;99.90;;;;;;5093835;28;20656;-69
2021/03/07 01:53:15;;;;;;;57.40;36.25;;;-0.30;99.90;;;;;;5093611;28;20211;-67
2021/03/07 01:55:41;;;;;;;64.90;39.90;;;-0.30;99.90;;;;;;5093767;28;20633;-69
2021/03/07 01:58:26;;;;;;;62.10;38.17;;;-0.30;99.90;;;;;;5093601;28;20200;-67
2021/03/07 02:00:52;;;;;;;55.85;36.45;;;-0.40;99.90;;;;;;5093728;28;20247;-69
2021/03/07 02:03:19;;;;;;;57.08;37.28;;;-0.40;99.90;;;;;;5093623;28;20196;-67
2021/03/07 02:05:46;;;;;;;56.72;38.17;;;-0.30;99.90;;;;;;5092364;28;20267;-68
2021/03/07 02:08:12;;;;;;;59.03;35.78;;;-0.30;99.90;;;;;;5092201;28;20233;-69
2021/03/07 02:10:44;;;;;;;58.67;40.53;;;-0.30;99.90;;;;;;5093605;28;20173;-67
2021/03/07 02:13:25;;;;;;;63.83;39.50;;;-0.30;99.90;;;;;;5092223;28;20196;-68
2021/03/07 02:15:54;;;;;;;67.47;40.92;;;-0.20;99.90;;;;;;5092319;28;20259;-67
2021/03/07 02:18:20;;;;;;;65.03;40.75;;;-0.30;99.90;;;;;;5092382;28;20673;-67
2021/03/07 02:20:59;;;;;;;72.00;43.33;;;-0.30;99.90;;;;;;5093410;28;20223;-67
2021/03/07 02:23:30;;;;;;;62.22;40.47;;;-0.40;99.90;;;;;;5093409;28;20920;-67
2021/03/07 02:25:56;;;;;;;64.68;40.33;;;-0.50;99.90;;;;;;5093540;28;20169;-67
2021/03/07 02:28:24;;;;;;;64.70;41.07;;;-0.50;99.90;;;;;;5093355;28;20279;-69
2021/03/07 02:30:50;;;;;;;64.90;40.53;;;-0.50;99.90;;;;;;5093405;28;20543;-67
2021/03/07 02:33:21;;;;;;;61.22;41.25;;;-0.60;99.90;;;;;;5093392;28;20696;-67
2021/03/07 02:36:02;;;;;;;75.03;42.92;;;-0.60;99.90;;;;;;5093449;28;20519;-69
2021/03/07 02:38:34;;;;;;;68.70;40.15;;;-0.70;99.90;;;;;;5094259;28;20517;-67
2021/03/07 02:41:01;;;;;;;73.45;41.00;;;-0.80;99.90;;;;;;5097162;28;20736;-67
2021/03/07 02:43:31;;;;;;;64.05;40.95;;;-0.80;99.90;;;;;;5095831;28;20215;-68
2021/03/07 02:46:00;;;;;;;64.97;40.67;;;-0.90;99.90;;;;;;5097246;28;20165;-69
2021/03/07 02:48:27;;;;;;;66.03;45.13;;;-1.00;99.90;;;;;;5097060;28;20192;-68
2021/03/07 02:50:54;;;;;;;76.05;43.08;;;-1.00;99.90;;;;;;5097001;28;20632;-67
2021/03/07 02:53:25;;;;;;;64.97;42.92;;;-0.90;99.90;;;;;;5096861;28;20646;-68
2021/03/07 02:56:13;;;;;;;67.47;43.08;;;-1.00;99.90;;;;;;5096910;28;20175;-69
2021/03/07 02:58:40;;;;;;;84.55;47.13;;;-1.10;99.90;;;;;;5095593;28;20204;-69
2021/03/07 03:01:09;;;;;;;62.17;39.67;;;-1.20;99.90;;;;;;5096736;28;20727;-68
2021/03/07 03:03:40;;;;;;;63.30;40.67;;;-1.10;99.90;;;;;;5096615;28;20201;-67
2021/03/07 03:06:06;;;;;;;66.32;40.60;;;-1.10;99.90;;;;;;5096850;28;20172;-68
2021/03/07 03:08:33;;;;;;;62.97;39.22;;;-1.00;99.90;;;;;;5096606;28;20215;-67
2021/03/07 03:11:01;;;;;;;70.65;41.70;;;-1.10;99.90;;;;;;5095338;28;20172;-68
2021/03/07 03:13:27;;;;;;;63.53;40.30;;;-1.20;99.90;;;;;;5096464;28;20316;-69
2021/03/07 03:15:54;;;;;;;63.05;39.65;;;-1.20;99.90;;;;;;5095307;28;20279;-68
2021/03/07 03:18:21;;;;;;;68.78;41.22;;;-1.00;99.90;;;;;;5096518;28;20615;-69
2021/03/07 03:20:49;;;;;;;67.50;39.33;;;-1.00;99.90;;;;;;5096354;28;20212;-68
2021/03/07 03:23:15;;;;;;;56.25;36.88;;;-1.00;99.90;;;;;;5095106;28;20199;-68
2021/03/07 03:25:41;;;;;;;62.00;38.37;;;-1.10;99.90;;;;;;5096434;28;20626;-68
2021/03/07 03:28:07;;;;;;;62.00;36.17;;;-1.00;99.90;;;;;;5096197;28;20470;-67
2021/03/07 03:30:35;;;;;;;57.60;38.35;;;-1.20;99.90;;;;;;5096237;28;20172;-69
2021/03/07 03:33:01;;;;;;;64.95;38.45;;;-1.20;99.90;;;;;;5096105;28;20565;-69
2021/03/07 03:35:26;;;;;;;59.05;38.35;;;-1.20;99.90;;;;;;5094992;28;20259;-69
2021/03/07 03:37:54;;;;;;;60.40;37.27;;;-1.40;99.90;;;;;;5096234;28;20259;-67
2021/03/07 03:40:24;;;;;;;60.47;38.92;;;-1.20;99.90;;;;;;5096024;28;20629;-68
2021/03/07 03:43:06;;;;;;;60.55;40.50;;;-1.10;99.90;;;;;;5096106;28;20157;-68
2021/03/07 03:45:35;;;;;;;62.72;40.55;;;-1.30;99.90;;;;;;5094711;28;20184;-69
2021/03/07 03:48:05;;;;;;;57.50;38.05;;;-1.20;99.90;;;;;;5095888;28;20707;-69
2021/03/07 03:50:31;;;;;;;60.65;37.28;;;-1.20;99.90;;;;;;5095402;28;20176;-69
2021/03/07 03:53:00;;;;;;;55.78;36.40;;;-1.30;99.90;;;;;;5095707;28;20546;-68
2021/03/07 03:55:29;;;;;;;54.83;33.20;;;-1.20;99.90;;;;;;5094558;28;20173;-69
2021/03/07 03:58:04;;;;;;;57.50;35.13;;;-1.20;99.90;;;;;;5095690;28;20271;-67
2021/03/07 04:00:34;;;;;;;54.45;35.20;;;-1.20;99.90;;;;;;5095651;28;20240;-68
2021/03/07 04:03:00;;;;;;;58.50;35.97;;;-1.20;99.90;;;;;;5095546;28;20195;-69
2021/03/07 04:05:29;;;;;;;57.20;37.00;;;-1.40;99.90;;;;;;5095628;28;20256;-67
2021/03/07 04:07:55;;;;;;;56.03;35.95;;;-1.40;99.90;;;;;;5095557;28;20234;-68
2021/03/07 04:10:22;;;;;;;52.58;35.00;;;-1.60;99.90;;;;;;5096037;28;20181;-67
2021/03/07 04:12:55;;;;;;;53.97;36.80;;;-1.40;99.90;;;;;;5095391;28;20176;-68
2021/03/07 04:15:21;;;;;;;48.08;34.30;;;-1.30;99.90;;;;;;5096034;28;20176;-67
2021/03/07 04:17:49;;;;;;;55.50;33.95;;;-1.50;99.90;;;;;;5095268;28;20258;-67
2021/03/07 04:20:16;;;;;;;56.15;34.92;;;-1.30;99.90;;;;;;5095798;28;20212;-68
2021/03/07 04:22:42;;;;;;;47.65;32.58;;;-1.50;99.90;;;;;;5095215;28;20573;-68
2021/03/07 04:25:09;;;;;;;52.22;31.48;;;-1.50;99.90;;;;;;5095769;28;20188;-67
2021/03/07 04:27:35;;;;;;;49.33;33.42;;;-1.60;99.90;;;;;;5095126;28;20694;-69
2021/03/07 04:30:04;;;;;;;45.42;32.33;;;-1.50;99.90;;;;;;5095624;28;20211;-67
2021/03/07 04:32:30;;;;;;;51.83;33.70;;;-1.40;99.90;;;;;;5093640;28;20169;-69
2021/03/07 04:34:57;;;;;;;49.25;33.88;;;-1.30;99.90;;;;;;5095463;28;20200;-68
2021/03/07 04:37:22;;;;;;;47.78;32.55;;;-1.30;99.90;;;;;;5094994;28;20298;-69
2021/03/07 04:39:48;;;;;;;53.30;33.23;;;-1.20;99.90;;;;;;5094847;28;22549;-67
2021/03/07 04:42:14;;;;;;;49.27;32.03;;;-1.10;99.90;;;;;;5094919;28;20168;-68
2021/03/07 04:44:39;;;;;;;47.33;31.20;;;-1.20;99.90;;;;;;5093618;28;20277;-68
2021/03/07 04:47:05;;;;;;;52.73;32.63;;;-1.20;99.90;;;;;;5094842;28;20188;-69
2021/03/07 04:49:31;;;;;;;45.40;31.83;;;-1.20;99.90;;;;;;5094988;28;20591;-67
2021/03/07 04:51:57;;;;;;;48.80;33.20;;;-1.50;99.90;;;;;;5094738;28;20218;-67
2021/03/07 04:54:23;;;;;;;45.87;30.70;;;-1.60;99.90;;;;;;5094503;28;20562;-67
2021/03/07 04:56:48;;;;;;;49.50;32.20;;;-1.60;99.90;;;;;;5094635;28;20210;-68
2021/03/07 04:59:14;;;;;;;50.27;33.00;;;-1.60;99.90;;;;;;5094807;28;20249;-68
2021/03/07 05:01:40;;;;;;;58.17;37.72;;;-1.50;99.90;;;;;;5093709;28;20232;-68
2021/03/07 05:04:06;;;;;;;50.30;35.13;;;-1.30;99.90;;;;;;5094601;28;20207;-66
2021/03/07 05:06:39;;;;;;;60.92;37.78;;;-1.20;99.90;;;;;;5093097;28;20225;-67
2021/03/07 05:09:08;;;;;;;53.78;35.08;;;-1.30;99.90;;;;;;5094515;28;20205;-67
2021/03/07 05:11:34;;;;;;;56.70;37.22;;;-1.10;99.90;;;;;;5094312;28;20208;-67
2021/03/07 05:14:00;;;;;;;52.83;35.83;;;-1.10;99.90;;;;;;5094386;28;20200;-67
2021/03/07 05:16:28;;;;;;;58.95;35.22;;;-1.20;99.90;;;;;;5093004;28;20932;-67
2021/03/07 05:18:54;;;;;;;50.60;35.53;;;-1.20;99.90;;;;;;5094343;28;20262;-67
2021/03/07 05:21:19;;;;;;;48.63;33.70;;;-1.30;99.90;;;;;;5094236;28;20203;-67
2021/03/07 05:23:45;;;;;;;54.33;35.50;;;-1.10;99.90;;;;;;5094137;28;20476;-68
2021/03/07 05:26:11;;;;;;;54.80;35.83;;;-1.10;99.90;;;;;;5094162;28;20877;-68
2021/03/07 05:28:37;;;;;;;54.30;37.30;;;-1.10;99.90;;;;;;5092775;28;20562;-68
2021/03/07 05:31:03;;;;;;;54.53;34.83;;;-1.20;99.90;;;;;;5092787;28;20778;-68
2021/03/07 05:33:29;;;;;;;54.85;35.80;;;-1.00;99.90;;;;;;5093994;28;20211;-68
2021/03/07 05:35:55;;;;;;;63.63;35.30;;;-0.90;99.90;;;;;;5094087;28;20177;-68
2021/03/07 05:38:21;;;;;;;54.83;33.50;;;-0.90;99.90;;;;;;5093914;28;20253;-67
2021/03/07 05:40:46;;;;;;;56.97;35.38;;;-0.90;99.90;;;;;;5093738;28;20232;-67
2021/03/07 05:43:12;;;;;;;59.57;35.40;;;-1.00;99.90;;;;;;5093851;28;20195;-67
2021/03/07 05:45:38;;;;;;;45.83;31.30;;;-1.00;99.90;;;;;;5093875;28;20209;-69
2021/03/07 05:48:04;;;;;;;47.17;33.90;;;-1.10;99.90;;;;;;5093762;28;20425;-67
2021/03/07 05:50:30;;;;;;;53.70;33.50;;;-0.90;99.90;;;;;;5093873;28;20169;-68
2021/03/07 05:52:57;;;;;;;49.63;34.10;;;-0.70;99.90;;;;;;5093705;28;20535;-67
2021/03/07 05:55:24;;;;;;;57.20;37.10;;;-0.60;99.90;;;;;;5092467;28;20212;-67
2021/03/07 05:57:50;;;;;;;70.68;47.83;;;-0.60;99.90;;;;;;5093752;28;20589;-68
2021/03/07 06:00:19;;;;;;;54.05;36.83;;;-0.60;99.90;;;;;;5094246;28;20220;-68
2021/03/07 06:02:46;;;;;;;63.22;42.00;;;-0.50;99.90;;;;;;5093655;28;20532;-68
2021/03/07 06:05:13;;;;;;;54.40;37.78;;;-0.60;99.90;;;;;;5092656;28;20189;-67
2021/03/07 06:07:39;;;;;;;53.60;34.50;;;-0.40;99.90;;;;;;5093703;28;20256;-68
2021/03/07 06:10:17;;;;;;;57.22;38.83;;;-0.30;99.90;;;;;;5094143;28;20177;-68
2021/03/07 06:12:54;;;;;;;57.40;37.33;;;-0.30;99.90;;;;;;5094845;28;20172;-67
2021/03/07 06:15:20;;;;;;;59.83;38.65;;;-0.20;99.90;;;;;;5098180;28;20263;-68
2021/03/07 06:17:47;;;;;;;68.47;43.90;;;-0.20;99.90;;;;;;5097610;28;20260;-67
2021/03/07 06:20:15;;;;;;;63.75;40.28;;;-0.10;99.90;;;;;;5096522;28;20476;-68
2021/03/07 06:22:58;;;;;;;50.95;37.50;;;-0.20;99.90;;;;;;5097565;28;20181;-69
2021/03/07 06:25:24;;;;;;;53.92;35.80;;;0.00;99.90;;;;;;5097698;28;20237;-67
2021/03/07 06:27:51;;;;;;;59.13;37.47;;;0.10;99.90;;;;;;5097403;28;20602;-67
2021/03/07 06:30:19;;;;;;;55.58;33.20;;;0.20;99.90;;;;;;5097997;28;20318;-67
2021/03/07 06:32:55;;;;;;;61.25;39.15;;;0.20;99.90;;;;;;5097342;28;20160;-68
2021/03/07 06:35:29;;;;;;;51.83;35.38;;;0.10;99.90;;;;;;5097901;28;20176;-67
2021/03/07 06:38:07;;;;;;;49.28;36.92;;;0.20;99.90;;;;;;5097321;28;20227;-67
2021/03/07 06:40:41;;;;;;;50.92;35.42;;;0.30;99.90;;;;;;5097026;28;20258;-67
2021/03/07 06:43:27;;;;;;;63.90;37.80;;;0.40;99.90;;;;;;5097297;28;20196;-68
2021/03/07 06:45:53;;;;;;;51.22;35.40;;;0.50;99.90;;;;;;5095961;28;20665;-69
2021/03/07 06:48:19;;;;;;;53.75;36.03;;;0.60;99.90;;;;;;5097128;28;20246;-69
2021/03/07 06:50:52;;;;;;;58.97;36.50;;;0.80;99.90;;;;;;5095800;28;20172;-68
2021/03/07 06:53:30;;;;;;;58.88;39.33;;;0.90;99.90;;;;;;5096888;28;20228;-69
2021/03/07 06:55:56;;;;;;;57.75;36.70;;;1.10;99.90;;;;;;5096992;28;20160;-67
2021/03/07 06:58:22;;;;;;;53.47;33.60;;;1.30;99.90;;;;;;5096908;28;20555;-69
2021/03/07 07:00:47;;;;;;;46.97;32.50;;;1.40;99.90;;;;;;5096699;28;20211;-69
2021/03/07 07:03:15;;;;;;;62.07;38.30;;;1.60;99.90;;;;;;5096729;28;20203;-68
2021/03/07 07:05:46;;;;;;;45.58;31.45;;;1.80;99.90;;;;;;5095472;28;20165;-68
2021/03/07 07:08:15;;;;;;;43.28;29.48;;;2.00;99.90;;;;;;5096613;28;20572;-67
2021/03/07 07:10:59;;;;;;;45.45;31.83;;;2.10;99.90;;;;;;5096701;28;20172;-70
2021/03/07 07:13:27;;;;;;;48.58;28.52;;;2.20;99.90;;;;;;5095292;28;20238;-67
2021/03/07 07:15:58;;;;;;;45.35;35.05;;;2.30;99.90;;;;;;5096570;28;20624;-68
2021/03/07 07:18:24;;;;;;;44.72;31.75;;;2.40;99.90;;;;;;5096450;28;20196;-68
2021/03/07 07:20:51;;;;;;;61.42;39.00;;;2.70;99.90;;;;;;5096343;28;20205;-68
2021/03/07 07:23:19;;;;;;;50.78;36.40;;;2.80;99.90;;;;;;5096349;28;20204;-69
2021/03/07 07:25:45;;;;;;;38.13;27.38;;;3.20;99.90;;;;;;5095491;28;20200;-69
2021/03/07 07:28:10;;;;;;;38.90;28.87;;;3.40;99.90;;;;;;5096209;28;20266;-68
2021/03/07 07:30:37;;;;;;;33.03;25.33;;;3.50;99.90;;;;;;5095045;28;20501;-68
2021/03/07 07:33:07;;;;;;;35.03;21.92;;;3.30;99.90;;;;;;5096133;28;20237;-68
2021/03/07 07:35:34;;;;;;;34.58;23.23;;;3.50;99.90;;;;;;5096522;28;20687;-67
2021/03/07 07:38:02;;;;;;;30.63;23.27;;;3.70;99.90;;;;;;5094676;28;20258;-67
2021/03/07 07:40:42;;;;;;;31.85;23.50;;;3.90;99.90;;;;;;5095784;28;20638;-68
2021/03/07 07:43:09;;;;;;;34.58;27.33;;;4.00;99.90;;;;;;5096096;28;20348;-67
2021/03/07 07:45:36;;;;;;;34.00;24.85;;;4.50;99.90;;;;;;5096058;28;20194;-68
2021/03/07 07:48:03;;;;;;;39.78;29.88;;;4.70;99.90;;;;;;5095833;28;20271;-68
2021/03/07 07:53:03;;;;;;;36.97;24.90;;;4.90;99.90;;;;;;5095784;28;20192;-69
2021/03/07 07:55:44;;;;;;;28.75;22.05;;;5.10;99.90;;;;;;5095846;28;20271;-68
2021/03/07 07:58:11;;;;;;;31.40;22.30;;;5.30;99.90;;;;;;5094401;28;20539;-68
2021/03/07 08:00:49;;;;;;;27.35;19.05;;;5.40;99.90;;;;;;5095599;28;20220;-68
2021/03/07 08:03:32;;;;;;;27.45;20.48;;;5.50;99.10;;;;;;5095668;28;20639;-69
2021/03/07 08:06:23;;;;;;;28.08;21.50;;;5.70;99.90;;;;;;5095638;28;20184;-67
2021/03/07 08:08:49;;;;;;;24.70;19.70;;;6.10;98.50;;;;;;5076590;28;20227;-70
2021/03/07 08:11:18;;;;;;;24.70;18.77;;;6.40;97.90;;;;;;5095564;28;20168;-67
2021/03/07 08:13:51;;;;;;;24.33;20.17;;;6.40;96.10;;;;;;5095409;28;20715;-69
2021/03/07 08:16:37;;;;;;;20.55;16.73;;;6.70;95.50;;;;;;5095468;28;20188;-70
2021/03/07 08:19:03;;;;;;;19.73;16.13;;;6.90;92.00;;;;;;5095446;28;20658;-68
2021/03/07 08:21:28;;;;;;;27.52;19.23;;;6.60;92.80;;;;;;5095322;28;20212;-69
2021/03/07 08:23:55;;;;;;;21.70;17.47;;;7.50;90.70;;;;;;5095384;28;20196;-68
2021/03/07 08:26:22;;;;;;;21.00;18.80;;;7.50;85.60;;;;;;5095170;28;20175;-69
2021/03/07 08:28:48;;;;;;;25.10;21.52;;;8.40;85.00;;;;;;5095120;28;20224;-69
2021/03/07 08:31:23;;;;;;;19.50;16.52;;;8.50;82.00;;;;;;5095143;28;20184;-69
2021/03/07 08:33:48;;;;;;;17.85;15.20;;;9.20;77.80;;;;;;5094911;28;20286;-69
2021/03/07 08:36:24;;;;;;;18.23;14.83;;;9.40;73.80;;;;;;5095056;28;20665;-70
2021/03/07 08:38:53;;;;;;;17.42;15.57;;;9.30;73.80;;;;;;5095064;28;20184;-69
2021/03/07 08:41:25;;;;;;;17.33;15.43;;;9.90;72.80;;;;;;5093547;28;20664;-69
2021/03/07 08:43:57;;;;;;;17.40;15.60;;;10.60;68.50;;;;;;5094925;28;20441;-68
2021/03/07 08:46:47;;;;;;;17.77;15.47;;;10.30;68.30;;;;;;5094882;28;20393;-70
2021/03/07 08:49:15;;;;;;;18.87;16.80;;;10.60;67.20;;;;;;5094548;28;20523;-69
2021/03/07 08:51:42;;;;;;;15.70;14.00;;;10.90;66.60;;;;;;5094690;28;20406;-68
2021/03/07 08:54:13;;;;;;;15.70;14.10;;;11.50;66.00;;;;;;5094975;28;20791;-69
2021/03/07 08:56:40;;;;;;;14.23;12.83;;;9.90;61.50;;;;;;5094671;28;20381;-68
2021/03/07 08:59:08;;;;;;;15.73;13.40;;;10.80;60.90;;;;;;5094493;28;20440;-70
2021/03/07 09:01:34;;;;;;;15.47;13.97;;;9.50;61.60;;;;;;5094593;28;20461;-70
2021/03/07 09:04:10;;;;;;;14.20;12.90;;;10.20;62.60;;;;;;5094613;28;20471;-69
2021/03/07 09:06:44;;;;;;;20.47;18.43;;;9.60;63.60;;;;;;5094516;28;20393;-68
2021/03/07 09:09:12;;;;;;;14.80;13.30;;;10.90;61.90;;;;;;5094577;28;20436;-69
2021/03/07 09:11:45;;;;;;;21.33;19.23;;;12.00;59.60;;;;;;5092895;28;20409;-69
2021/03/07 09:14:10;;;;;;;14.10;12.80;;;11.50;57.60;;;;;;5092960;28;20449;-69
2021/03/07 09:16:48;;;;;;;17.00;15.20;;;11.90;60.60;;;;;;5094281;28;20409;-70
2021/03/07 09:19:26;;;;;;;15.10;13.53;;;12.50;58.90;;;;;;5094543;28;20196;-70
2021/03/07 09:22:20;;;;;;;18.20;16.00;;;12.70;56.80;;;;;;5094242;28;20464;-69
2021/03/07 09:25:04;;;;;;;13.93;12.57;;;13.10;57.40;;;;;;5094488;28;20563;-70
2021/03/07 09:27:35;;;;;;;16.00;14.30;;;13.90;55.10;;;;;;5092856;28;20492;-70
2021/03/07 09:30:09;;;;;;;14.63;13.23;;;12.50;55.50;;;;;;5093089;28;20477;-69
2021/03/07 09:32:48;;;;;;;15.37;13.93;;;12.50;54.20;;;;;;5093996;28;20434;-71
2021/03/07 09:35:21;;;;;;;16.67;15.00;;;12.50;55.40;;;;;;5094574;28;20513;-69
2021/03/07 09:37:54;;;;;;;16.50;14.87;;;13.30;54.20;;;;;;5092705;28;20418;-69
2021/03/07 09:40:20;;;;;;;16.97;15.33;;;13.20;55.50;;;;;;5092393;28;20494;-69
2021/03/07 09:42:54;;;;;;;15.47;13.87;;;12.80;54.20;;;;;;5093745;28;20429;-70
2021/03/07 09:45:20;;;;;;;12.13;10.70;;;11.90;55.70;;;;;;5092684;28;20425;-71
2021/03/07 09:47:46;;;;;;;13.53;11.87;;;11.80;53.10;;;;;;5093331;28;20776;-71
2021/03/07 09:50:12;;;;;;;12.17;11.00;;;11.80;53.50;;;;;;5093889;28;20447;-71
2021/03/07 09:52:38;;;;;;;12.40;10.27;;;11.00;53.70;;;;;;5093784;28;20184;-69
2021/03/07 09:55:04;;;;;;;13.57;11.80;;;9.90;54.20;;;;;;5094266;28;20409;-69
2021/03/07 09:57:29;;;;;;;14.10;12.60;;;9.20;56.00;;;;;;5093698;28;20305;-69
2021/03/07 09:59:55;;;;;;;12.93;11.63;;;9.30;56.60;;;;;;5093992;28;20523;-68
2021/03/07 10:02:21;;;;;;;13.80;12.50;;;10.40;56.10;;;;;;5093752;28;20252;-70
2021/03/07 10:04:48;;;;;;;12.53;11.33;;;10.50;54.50;;;;;;5093952;28;20208;-69
2021/03/07 10:07:17;;;;;;;16.73;13.77;;;11.00;55.20;;;;;;5093689;28;20169;-69
2021/03/07 10:10:24;;;;;;;11.77;10.67;;;10.40;55.20;;;;;;5092382;28;20469;-69
2021/03/07 10:12:55;;;;;;;15.10;12.40;;;9.90;57.10;;;;;;5092357;28;20470;-69
2021/03/07 10:15:27;;;;;;;15.10;12.97;;;9.30;58.20;;;;;;5092631;28;20961;-70
2021/03/07 10:17:53;;;;;;;12.53;11.17;;;9.20;57.40;;;;;;5092323;28;20397;-69
2021/03/07 10:20:19;;;;;;;12.17;11.03;;;9.50;57.60;;;;;;5092415;28;21015;-70
2021/03/07 10:22:47;;;;;;;14.30;12.90;;;9.90;57.80;;;;;;5093523;28;20397;-68
2021/03/07 10:25:30;;;;;;;13.80;12.40;;;10.40;56.70;;;;;;5094095;28;20184;-70
2021/03/07 10:28:00;;;;;;;14.40;12.20;;;9.80;56.60;;;;;;5092234;28;20803;-70
2021/03/07 10:30:31;;;;;;;15.40;11.90;;;8.80;59.60;;;;;;5093357;28;20754;-70
2021/03/07 10:33:15;;;;;;;12.20;11.00;;;9.80;57.60;;;;;;5093347;28;20417;-70
2021/03/07 10:36:03;;;;;;;15.00;11.20;;;10.00;57.10;;;;;;5093426;28;20474;-69
2021/03/07 10:38:33;;;;;;;13.40;12.00;;;8.70;57.40;;;;;;5093274;28;20436;-68
2021/03/07 10:40:59;;;;;;;14.27;12.23;;;9.50;58.30;;;;;;5093323;28;20520;-69
2021/03/07 10:43:25;;;;;;;18.03;13.13;;;8.80;58.00;;;;;;5093362;28;20459;-69
2021/03/07 10:45:51;;;;;;;12.80;11.50;;;9.20;58.00;;;;;;5093313;28;20401;-69
2021/03/07 10:48:17;;;;;;;14.07;11.87;;;9.00;57.80;;;;;;5093269;28;20204;-69
2021/03/07 10:50:46;;;;;;;14.60;12.70;;;9.50;57.50;;;;;;5091965;28;20421;-69
2021/03/07 10:53:12;;;;;;;12.93;11.63;;;9.00;57.50;;;;;;5091897;28;20197;-70
2021/03/07 10:55:37;;;;;;;15.60;12.87;;;10.00;58.00;;;;;;5093259;28;20176;-70
2021/03/07 10:58:04;;;;;;;14.60;13.03;;;9.00;57.20;;;;;;5091777;28;20425;-68
2021/03/07 11:00:30;;;;;;;15.02;13.55;;;9.10;57.00;;;;;;5095563;28;20336;-70
2021/03/07 11:02:56;;;;;;;12.93;11.57;;;8.90;57.60;;;;;;5095630;28;20201;-69
2021/03/07 11:05:23;;;;;;;14.15;12.07;;;9.40;56.20;;;;;;5096863;28;20444;-69
2021/03/07 11:07:49;;;;;;;19.95;13.52;;;9.80;57.30;;;;;;5096748;28;20172;-69
2021/03/07 11:10:20;;;;;;;14.48;12.25;;;9.20;56.70;;;;;;5097315;28;20551;-69
2021/03/07 11:12:46;;;;;;;16.02;13.05;;;10.00;56.30;;;;;;5096634;28;20641;-68
2021/03/07 11:15:13;;;;;;;14.10;12.67;;;10.00;56.40;;;;;;5095674;28;20225;-70
2021/03/07 11:17:39;;;;;;;14.73;12.57;;;10.00;55.90;;;;;;5096565;28;20642;-68
2021/03/07 11:20:07;;;;;;;13.45;12.10;;;9.80;56.00;;;;;;5097016;28;20661;-68
2021/03/07 11:22:33;;;;;;;14.77;13.38;;;9.00;57.80;;;;;;5096366;28;20206;-68
2021/03/07 11:24:59;;;;;;;13.20;11.90;;;9.40;56.30;;;;;;5096956;28;20634;-69
2021/03/07 11:27:25;;;;;;;15.67;13.93;;;9.40;56.40;;;;;;5096604;28;20691;-69
2021/03/07 11:29:50;;;;;;;16.53;13.70;;;9.50;56.50;;;;;;5096600;28;20200;-69
2021/03/07 11:32:16;;;;;;;16.90;14.87;;;9.70;55.80;;;;;;5096394;28;20173;-69
2021/03/07 11:34:41;;;;;;;14.27;12.30;;;10.30;55.80;;;;;;5096485;28;20199;-68
2021/03/07 11:37:07;;;;;;;13.57;11.40;;;10.10;55.20;;;;;;5096247;28;20173;-70
2021/03/07 11:39:33;;;;;;;14.40;11.63;;;9.40;55.70;;;;;;5094635;28;20247;-68
2021/03/07 11:41:59;;;;;;;13.83;12.47;;;10.20;55.90;;;;;;5094807;28;20215;-69
2021/03/07 11:44:25;;;;;;;15.25;13.65;;;9.90;55.20;;;;;;5096244;28;20270;-69
2021/03/07 11:46:52;;;;;;;13.13;11.60;;;9.20;56.30;;;;;;5096042;28;20169;-69
2021/03/07 11:49:19;;;;;;;13.10;11.75;;;9.30;56.30;;;;;;5096212;28;20520;-68
2021/03/07 11:51:44;;;;;;;13.18;11.32;;;9.60;55.80;;;;;;5095966;28;20177;-70
2021/03/07 11:54:10;;;;;;;14.23;12.50;;;9.90;55.10;;;;;;5096057;28;20265;-68
2021/03/07 11:56:35;;;;;;;13.50;12.20;;;10.10;55.70;;;;;;5095846;28;20723;-69
2021/03/07 11:59:01;;;;;;;15.30;12.67;;;9.20;55.20;;;;;;5095887;28;20227;-69
2021/03/07 12:01:27;;;;;;;12.87;11.40;;;9.40;55.80;;;;;;5095703;28;20249;-69
2021/03/07 12:03:52;;;;;;;12.63;10.67;;;9.50;55.10;;;;;;5095864;28;20208;-68
2021/03/07 12:06:18;;;;;;;14.37;12.97;;;9.80;55.90;;;;;;5094426;28;20172;-69
2021/03/07 12:08:44;;;;;;;12.27;11.07;;;10.20;56.20;;;;;;5095330;28;20197;-70
2021/03/07 12:11:09;;;;;;;12.60;11.30;;;10.30;54.20;;;;;;5095281;28;20165;-69
2021/03/07 12:13:35;;;;;;;12.27;10.80;;;9.70;54.40;;;;;;5095599;28;20726;-69
2021/03/07 12:16:00;;;;;;;13.90;12.50;;;10.10;54.00;;;;;;5095501;28;20169;-69
2021/03/07 12:18:26;;;;;;;10.70;9.70;;;10.20;53.40;;;;;;5094065;28;20324;-70
2021/03/07 12:20:52;;;;;;;16.90;10.57;;;10.20;52.90;;;;;;5095274;28;20241;-68
2021/03/07 12:23:17;;;;;;;11.10;10.00;;;9.90;54.50;;;;;;5093927;28;20592;-68
2021/03/07 12:25:43;;;;;;;14.63;11.33;;;9.60;53.60;;;;;;5095269;28;20179;-68
2021/03/07 12:28:08;;;;;;;12.13;10.93;;;9.90;54.50;;;;;;5095259;28;20195;-69
2021/03/07 12:30:35;;;;;;;18.10;14.33;;;9.20;53.90;;;;;;5095184;28;20313;-68
2021/03/07 12:33:00;;;;;;;11.77;10.68;;;9.60;54.40;;;;;;5095045;28;20196;-68
2021/03/07 12:35:26;;;;;;;11.43;10.40;;;9.80;55.30;;;;;;5094899;28;20168;-70
2021/03/07 12:37:52;;;;;;;14.07;12.73;;;9.80;54.00;;;;;;5094080;28;20181;-68
2021/03/07 12:40:18;;;;;;;13.73;12.43;;;10.00;54.00;;;;;;5092806;28;20481;-70